Rechercher aéroport 
image banner adimage banner adimage banner ad
image banner ad

CN15 - Vineyard Oaks Farm

Situé à Lemore, United States

ICAO - CN15, IATA -

Données fournies par Airmate  

Information générale

Coordonnées: N36°22'5" W119°47'6"
Élévation : 210 feet MSL.
 
Voir autres Aéroports à California

Données opérationnelles

Special qualification required
Heure actuelle UTC:
Heure actuelle locale:
Météo à : KHJO - Hanford Muni ( 15 km )
METAR: KHJO 300053Z AUTO 31009KT 10SM CLR 39/14 A2977 RMK AO2 SLP080 T03940139
Voir NOTAMs / SUP AIP / TFR affectant cet aéroport [VIEW]
Fréquences de communication: [VIEW]

Pistes:

Identifiant RWYQFULongueur (ft)Largeur (ft)SurfaceLDA (ft)
16218050GRASS
34218050GRASS

Coordonnées de l'aéroport

Adresse: Lemore United States

Vue satellite de CN15